Time;durP1;ratioP1;P1;durP2;ratioP2;P2;SDS_P1;SDS_P2;PMS_P1;PMS_P2;Temp;Humidity;BMP_temperature;BMP_pressure;BME280_temperature;BME280_humidity;BME280_pressure;Samples;Min_cycle;Max_cycle;Signal;HPM_P1;HPM_P2
2024/01/20 00:01:13;;;;;;;1.58;1.48;;;;;;;-3.07;80.98;100468.50;5113089;28;20044;-75
2024/01/20 00:03:42;;;;;;;0.80;0.80;;;;;;;-3.03;81.07;100477.09;5114329;28;20110;-75
2024/01/20 00:06:12;;;;;;;1.02;1.02;;;;;;;-3.04;80.97;100473.72;5114322;28;20151;-74
2024/01/20 00:08:41;;;;;;;2.70;2.50;;;;;;;-3.01;80.50;100478.03;5113995;28;20048;-75
2024/01/20 00:11:10;;;;;;;3.10;2.85;;;;;;;-3.03;81.02;100485.44;5114215;28;20044;-75
2024/01/20 00:13:39;;;;;;;0.90;0.88;;;;;;;-3.04;80.68;100483.69;5113806;28;20044;-75
2024/01/20 00:16:11;;;;;;;0.82;0.82;;;;;;;-3.08;81.06;100491.75;5113956;28;20043;-75
2024/01/20 00:18:39;;;;;;;0.75;0.75;;;;;;;-3.04;80.96;100503.66;5113889;28;20047;-75
2024/01/20 00:21:09;;;;;;;0.60;0.60;;;;;;;-3.02;81.03;100486.28;5114351;28;20486;-75
2024/01/20 00:23:38;;;;;;;0.70;0.70;;;;;;;-3.13;80.93;100488.09;5118180;28;20043;-75
2024/01/20 00:26:07;;;;;;;5.28;1.60;;;;;;;-3.12;80.79;100481.47;5118215;28;20067;-75
2024/01/20 00:28:36;;;;;;;3.95;2.78;;;;;;;-3.07;80.79;100482.66;5117947;28;20042;-75
2024/01/20 00:31:05;;;;;;;0.60;0.60;;;;;;;-3.08;80.68;100486.78;5118060;28;20063;-75
2024/01/20 00:33:35;;;;;;;4.00;1.10;;;;;;;-3.17;81.27;100491.16;5116809;28;20100;-75
2024/01/20 00:36:05;;;;;;;2.05;1.95;;;;;;;-3.17;81.30;100496.16;5116650;28;20523;-75
2024/01/20 00:38:34;;;;;;;;;;;;;;;-3.13;81.47;100507.19;5118018;28;20398;-75
2024/01/20 00:41:03;;;;;;;1.23;1.20;;;;;;;-3.11;81.05;100511.53;5116583;28;20377;-75
2024/01/20 00:43:32;;;;;;;0.70;0.70;;;;;;;-3.41;81.00;100452.13;5117638;28;20502;-75
2024/01/20 00:46:02;;;;;;;0.95;0.93;;;;;;;-3.13;80.84;100514.69;5117517;28;20193;-75
2024/01/20 00:48:30;;;;;;;;;;;;;;;-3.18;80.62;100509.38;5117962;28;20405;-75
2024/01/20 00:51:00;;;;;;;0.60;0.60;;;;;;;-3.24;80.80;100518.97;5099329;28;19959;-76
2024/01/20 00:53:29;;;;;;;1.35;1.25;;;;;;;-3.25;80.73;100512.25;5116366;28;20505;-76
2024/01/20 00:55:58;;;;;;;1.10;1.10;;;;;;;-3.21;81.04;100519.16;5117386;28;20571;-75
2024/01/20 00:58:27;;;;;;;0.80;0.80;;;;;;;-3.23;81.33;100525.69;5117911;28;20032;-75
2024/01/20 01:00:56;;;;;;;0.80;0.80;;;;;;;-3.19;81.20;100529.25;5117799;27;20119;-75
2024/01/20 01:03:25;;;;;;;1.50;1.40;;;;;;;-3.25;81.33;100512.25;5116303;28;20047;-76
2024/01/20 01:05:53;;;;;;;1.48;1.38;;;;;;;-3.14;81.49;100541.25;5115975;28;20051;-76
2024/01/20 01:08:24;;;;;;;;;;;;;;;-3.12;81.52;100544.72;5116513;28;20070;-76
2024/01/20 01:10:55;;;;;;;0.40;0.40;;;;;;;-3.06;81.27;100550.13;5117578;28;19919;-75
2024/01/20 01:13:24;;;;;;;0.88;0.88;;;;;;;-2.96;81.19;100557.47;5117535;28;20044;-75
2024/01/20 01:15:53;;;;;;;1.57;1.47;;;;;;;-3.05;81.24;100531.91;5117562;28;20512;-75
2024/01/20 01:18:24;;;;;;;2.13;2.03;;;;;;;-2.86;81.41;100557.31;5117254;28;20284;-75
2024/01/20 01:20:53;;;;;;;0.47;0.47;;;;;;;-2.77;81.63;100554.56;5099206;28;20123;-75
2024/01/20 01:23:24;;;;;;;2.08;1.98;;;;;;;-2.78;81.08;100553.69;5116976;28;20043;-75
2024/01/20 01:25:53;;;;;;;0.60;0.60;;;;;;;-2.77;81.51;100559.56;5115915;28;20083;-75
2024/01/20 01:28:22;;;;;;;0.70;0.70;;;;;;;-2.80;81.00;100564.34;5098633;28;20043;-75
2024/01/20 01:30:51;;;;;;;0.55;0.55;;;;;;;-2.84;81.53;100563.28;5099387;28;20043;-75
2024/01/20 01:33:20;;;;;;;0.73;0.73;;;;;;;-2.83;81.07;100560.00;5097946;28;20040;-75
2024/01/20 01:35:49;;;;;;;0.65;0.65;;;;;;;-2.78;81.02;100560.31;5117205;28;20058;-75
2024/01/20 01:38:18;;;;;;;1.60;1.50;;;;;;;-2.77;81.36;100574.53;5098238;28;20044;-75
2024/01/20 01:40:49;;;;;;;2.15;1.98;;;;;;;-2.73;81.56;100572.34;5116937;28;20065;-75
2024/01/20 01:43:18;;;;;;;6.53;4.25;;;;;;;-2.62;81.36;100564.69;5098580;28;20047;-75
2024/01/20 01:45:47;;;;;;;1.83;1.60;;;;;;;-2.59;81.41;100564.88;5115446;28;20382;-75
2024/01/20 01:48:16;;;;;;;0.63;0.63;;;;;;;-2.60;81.11;100563.13;5116716;28;20051;-75
2024/01/20 01:50:45;;;;;;;2.25;2.05;;;;;;;-2.61;81.33;100576.38;5114963;28;20051;-75
2024/01/20 01:53:15;;;;;;;0.70;0.70;;;;;;;-2.63;81.17;100568.81;5115478;28;20044;-75
2024/01/20 01:55:47;;;;;;;;;;;;;;;-2.71;81.32;100574.91;5115269;28;20055;-75
2024/01/20 01:58:17;;;;;;;2.10;2.00;;;;;;;-2.74;81.84;100570.63;5116123;28;20336;-76
2024/01/20 02:00:46;;;;;;;0.40;0.40;;;;;;;-2.78;81.41;100568.66;5116306;27;20036;-75
2024/01/20 02:03:15;;;;;;;0.70;0.70;;;;;;;-2.85;81.42;100566.53;5116464;27;20035;-75
2024/01/20 02:05:44;;;;;;;;;;;;;;;-2.88;81.32;100565.47;5116775;28;20051;-75
2024/01/20 02:08:13;;;;;;;0.85;0.85;;;;;;;-2.97;81.52;100565.72;5116123;28;19927;-75
2024/01/20 02:10:42;;;;;;;1.13;1.13;;;;;;;-2.96;81.09;100567.47;5116281;28;20036;-75
2024/01/20 02:13:11;;;;;;;;;;;;;;;-3.00;81.61;100569.66;5116813;28;20402;-75
2024/01/20 02:15:43;;;;;;;0.98;0.98;;;;;;;-3.06;80.78;100575.09;5115942;28;20032;-75
2024/01/20 02:18:12;;;;;;;1.48;1.38;;;;;;;-3.11;81.08;100566.44;5116214;28;20378;-75
2024/01/20 02:20:41;;;;;;;1.45;1.35;;;;;;;-3.09;80.91;100572.38;5081035;28;20047;-76
2024/01/20 02:23:12;;;;;;;0.50;0.50;;;;;;;-3.05;81.05;100576.84;5097583;28;20067;-75
2024/01/20 02:25:40;;;;;;;0.45;0.45;;;;;;;-3.11;81.30;100575.53;5116108;28;20048;-75
2024/01/20 02:28:10;;;;;;;1.77;1.45;;;;;;;-3.19;81.25;100587.50;5114499;28;20047;-75
2024/01/20 02:30:39;;;;;;;0.50;0.50;;;;;;;-3.22;81.32;100587.31;5115819;28;20032;-75
2024/01/20 02:33:08;;;;;;;4.78;2.78;;;;;;;-3.30;81.23;100583.44;5115909;28;20046;-75
2024/01/20 02:35:37;;;;;;;0.55;0.55;;;;;;;-3.35;81.06;100576.38;5115777;28;20028;-75
2024/01/20 02:38:06;;;;;;;1.90;1.40;;;;;;;-3.44;81.37;100560.03;5114601;28;20051;-75
2024/01/20 02:40:36;;;;;;;3.58;3.25;;;;;;;-3.32;81.46;100565.00;5114248;28;20383;-75
2024/01/20 02:43:05;;;;;;;2.28;2.15;;;;;;;-3.28;81.36;100576.91;5115791;28;20089;-75
2024/01/20 02:45:34;;;;;;;0.93;0.93;;;;;;;-3.31;81.14;100576.69;5114483;28;20054;-75
2024/01/20 02:48:04;;;;;;;;;;;;;;;-3.44;81.07;100575.00;5115965;28;20032;-75
2024/01/20 02:50:33;;;;;;;0.88;0.85;;;;;;;-3.55;81.27;100580.03;5115632;28;19919;-75
2024/01/20 02:53:02;;;;;;;1.42;1.33;;;;;;;-3.59;80.90;100583.94;5113682;28;20050;-75
2024/01/20 02:55:30;;;;;;;2.00;1.90;;;;;;;-3.50;81.36;100576.19;5115446;28;20071;-75
2024/01/20 02:58:01;;;;;;;2.05;1.95;;;;;;;-3.46;81.14;100575.66;5114229;28;20111;-75
2024/01/20 03:00:29;;;;;;;2.10;2.00;;;;;;;-3.49;81.20;100580.44;5114784;28;20135;-76
2024/01/20 03:02:58;;;;;;;0.80;0.80;;;;;;;-3.49;81.03;100582.94;5115384;28;20197;-75
2024/01/20 03:05:27;;;;;;;0.65;0.65;;;;;;;-3.52;81.34;100585.22;5115351;28;20036;-75
2024/01/20 03:07:55;;;;;;;19.35;3.13;;;;;;;-3.62;81.62;100595.31;5114959;28;20070;-76
2024/01/20 03:10:25;;;;;;;0.70;0.70;;;;;;;-3.69;81.07;100594.03;5115348;28;20036;-76
2024/01/20 03:12:54;;;;;;;1.08;1.08;;;;;;;-3.65;81.36;100602.59;5115127;28;20031;-76
2024/01/20 03:15:24;;;;;;;0.60;0.60;;;;;;;-3.65;81.50;100602.59;5114730;28;20507;-75
2024/01/20 03:17:54;;;;;;;4.50;2.95;;;;;;;-3.62;81.51;100600.28;5113502;28;20119;-75
2024/01/20 03:20:23;;;;;;;1.65;1.55;;;;;;;-3.71;81.43;100602.16;5113342;28;20401;-75
2024/01/20 03:22:52;;;;;;;2.05;1.88;;;;;;;-3.69;81.30;100605.63;5113406;28;20053;-75
2024/01/20 03:25:20;;;;;;;1.38;1.33;;;;;;;-3.71;81.17;100609.63;5113490;28;20131;-75
2024/01/20 03:27:50;;;;;;;0.70;0.70;;;;;;;-3.75;81.44;100610.19;5113264;28;20050;-75
2024/01/20 03:30:19;;;;;;;1.38;1.27;;;;;;;-3.61;81.17;100614.50;5113399;28;20047;-75
2024/01/20 03:32:49;;;;;;;1.92;1.80;;;;;;;-3.66;81.30;100605.84;5114622;28;20039;-75
2024/01/20 03:35:18;;;;;;;2.60;2.40;;;;;;;-3.76;81.43;100624.28;5114608;28;20043;-75
2024/01/20 03:37:47;;;;;;;0.75;0.75;;;;;;;-3.75;81.40;100625.16;5114286;28;20038;-75
2024/01/20 03:40:19;;;;;;;0.70;0.70;;;;;;;-3.72;81.66;100615.41;5114278;28;20485;-75
2024/01/20 03:42:47;;;;;;;1.45;1.10;;;;;;;-3.70;81.54;100613.88;5095747;28;20413;-74
2024/01/20 03:45:16;;;;;;;0.88;0.88;;;;;;;-3.71;81.60;100609.63;5113508;28;20040;-75
2024/01/20 03:47:46;;;;;;;0.60;0.60;;;;;;;-3.80;81.05;100617.34;5113311;28;20043;-75
2024/01/20 03:50:16;;;;;;;1.85;1.75;;;;;;;-3.89;81.14;100621.69;5114204;28;20034;-75
2024/01/20 03:52:45;;;;;;;0.60;0.60;;;;;;;-3.87;81.09;100621.78;5114051;28;20071;-75
2024/01/20 03:55:14;;;;;;;1.55;1.45;;;;;;;-3.87;81.09;100624.28;5112808;28;20047;-75
2024/01/20 03:57:44;;;;;;;4.38;2.92;;;;;;;-3.77;81.54;100631.66;5113810;28;20079;-75
2024/01/20 04:00:14;;;;;;;1.65;1.05;;;;;;;-3.78;81.40;100634.91;5079405;28;20043;-75
2024/01/20 04:02:43;;;;;;;0.70;0.70;;;;;;;-3.80;81.58;100636.41;5112924;28;20036;-75
2024/01/20 04:05:12;;;;;;;17.67;3.05;;;;;;;-3.93;81.02;100638.78;5114259;28;20039;-75
2024/01/20 04:07:43;;;;;;;0.50;0.50;;;;;;;-3.96;80.80;100646.06;5112526;28;20416;-75
2024/01/20 04:10:12;;;;;;;1.52;1.42;;;;;;;-4.08;81.73;100624.47;5114277;28;20130;-75
2024/01/20 04:12:42;;;;;;;0.93;0.93;;;;;;;-3.91;81.50;100649.75;5113935;28;20042;-75
2024/01/20 04:15:11;;;;;;;4.05;3.72;;;;;;;-3.97;81.75;100649.31;5112754;28;20036;-75
2024/01/20 04:17:40;;;;;;;0.43;0.43;;;;;;;-3.97;81.46;100651.81;5112504;28;20043;-74
2024/01/20 04:20:10;;;;;;;1.95;1.85;;;;;;;-3.90;81.47;100663.94;5112860;28;20042;-75
2024/01/20 04:22:39;;;;;;;3.03;1.58;;;;;;;-3.98;81.49;100665.03;5113922;28;20051;-75
2024/01/20 04:25:10;;;;;;;0.90;0.90;;;;;;;-4.04;81.43;100662.09;5114026;28;20047;-75
2024/01/20 04:27:40;;;;;;;0.90;0.90;;;;;;;-3.99;81.61;100663.28;5114099;28;20108;-75
2024/01/20 04:30:11;;;;;;;2.05;1.63;;;;;;;-4.03;81.39;100651.38;5114349;28;20047;-75
2024/01/20 04:32:40;;;;;;;1.27;1.17;;;;;;;-4.12;81.04;100664.91;5113908;28;20071;-75
2024/01/20 04:35:09;;;;;;;1.67;1.58;;;;;;;-4.03;81.60;100668.81;5113573;28;20046;-75
2024/01/20 04:37:39;;;;;;;0.50;0.50;;;;;;;-4.04;81.55;100672.06;5112869;28;20490;-74
2024/01/20 04:40:10;;;;;;;2.17;1.95;;;;;;;-4.07;81.58;100671.09;5112467;28;20043;-75
2024/01/20 04:42:39;;;;;;;1.00;1.00;;;;;;;-4.11;81.79;100674.13;5114019;28;20547;-75
2024/01/20 04:45:11;;;;;;;1.77;1.67;;;;;;;-4.13;81.29;100673.13;5113488;28;20056;-75
2024/01/20 04:47:40;;;;;;;0.52;0.52;;;;;;;-4.09;81.03;100680.09;5113993;28;20035;-75
2024/01/20 04:50:10;;;;;;;0.75;0.75;;;;;;;-4.16;81.13;100680.41;5113922;28;20032;-75
2024/01/20 04:52:38;;;;;;;1.17;1.08;;;;;;;-4.17;81.82;100678.66;5095941;28;20043;-75
2024/01/20 04:55:09;;;;;;;2.65;2.47;;;;;;;-4.21;81.81;100681.69;5113536;28;20451;-76
2024/01/20 04:57:38;;;;;;;8.57;3.22;;;;;;;-4.21;81.30;100685.78;5095294;28;20043;-76
2024/01/20 05:00:08;;;;;;;1.33;1.27;;;;;;;-4.21;81.15;100691.66;5113555;28;20035;-76
2024/01/20 05:02:37;;;;;;;1.20;1.20;;;;;;;-4.21;81.72;100694.13;5113780;28;20043;-76
2024/01/20 05:05:06;;;;;;;0.73;0.73;;;;;;;-4.24;81.33;100705.50;5112492;28;20031;-76
2024/01/20 05:07:35;;;;;;;1.02;1.02;;;;;;;-4.26;81.83;100712.84;5114122;28;20135;-76
2024/01/20 05:10:05;;;;;;;0.90;0.90;;;;;;;-4.21;81.51;100715.69;5117190;28;20092;-76
2024/01/20 05:12:36;;;;;;;0.70;0.70;;;;;;;-4.22;81.47;100714.81;5099664;28;20154;-76
2024/01/20 05:15:10;;;;;;;0.82;0.82;;;;;;;-4.19;81.46;100719.16;5117924;28;20086;-75
2024/01/20 05:17:40;;;;;;;0.73;0.73;;;;;;;-4.18;81.58;100715.91;5117827;28;20469;-75
2024/01/20 05:20:13;;;;;;;0.93;0.93;;;;;;;-4.71;81.29;100638.84;5116775;28;20059;-75
2024/01/20 05:22:42;;;;;;;0.68;0.68;;;;;;;-4.32;81.26;100729.81;5117324;28;20486;-75
2024/01/20 05:25:11;;;;;;;;;;;;;;;-4.32;81.30;100722.34;5117182;27;20044;-75
2024/01/20 05:27:42;;;;;;;0.50;0.50;;;;;;;-4.23;81.43;100720.56;5115815;28;19920;-74
2024/01/20 05:30:11;;;;;;;0.90;0.90;;;;;;;-4.20;81.22;100733.22;5116884;28;20052;-74
2024/01/20 05:32:41;;;;;;;0.77;0.77;;;;;;;-4.32;81.52;100732.31;5117115;28;20048;-74
2024/01/20 05:35:10;;;;;;;1.35;1.30;;;;;;;-4.32;81.53;100727.34;5115686;28;20093;-75
2024/01/20 05:37:39;;;;;;;0.80;0.80;;;;;;;-4.29;81.33;100736.66;5116930;28;20040;-74
2024/01/20 05:40:09;;;;;;;2.90;2.58;;;;;;;-4.39;81.33;100745.06;5116737;28;20370;-74
2024/01/20 05:42:38;;;;;;;2.08;1.98;;;;;;;-4.52;81.39;100712.56;5116784;28;20085;-74
2024/01/20 05:45:10;;;;;;;0.70;0.70;;;;;;;-4.38;81.42;100741.84;5116782;28;20040;-74
2024/01/20 05:47:40;;;;;;;1.80;1.70;;;;;;;-4.47;81.47;100730.31;5116309;28;20054;-74
2024/01/20 05:50:09;;;;;;;4.07;2.90;;;;;;;-4.60;81.69;100717.69;5098257;28;20044;-74
2024/01/20 05:52:38;;;;;;;1.20;1.10;;;;;;;-4.39;81.67;100745.06;5116590;28;20034;-75
2024/01/20 05:55:07;;;;;;;0.60;0.60;;;;;;;-4.42;81.05;100749.84;5116553;28;20370;-74
2024/01/20 05:57:36;;;;;;;;;;;;;;;-4.43;81.91;100755.56;5115367;28;20044;-74
2024/01/20 06:00:06;;;;;;;0.70;0.70;;;;;;;-4.47;81.77;100753.63;5116347;28;20370;-74
2024/01/20 06:02:37;;;;;;;2.10;1.95;;;;;;;-4.41;81.44;100748.19;5115655;28;20043;-74
2024/01/20 06:05:07;;;;;;;1.13;1.02;;;;;;;-4.45;81.19;100754.59;5116340;28;20131;-74
2024/01/20 06:07:36;;;;;;;2.03;1.85;;;;;;;-4.50;81.77;100760.84;5116218;28;20032;-75
2024/01/20 06:10:05;;;;;;;1.80;1.70;;;;;;;-4.57;81.03;100770.22;5114943;28;20134;-75
2024/01/20 06:12:34;;;;;;;1.73;1.08;;;;;;;-4.59;81.62;100782.56;5115654;28;20044;-74
2024/01/20 06:15:03;;;;;;;1.40;1.30;;;;;;;-4.59;81.19;100782.56;5115892;28;20067;-74
2024/01/20 06:17:32;;;;;;;1.13;1.05;;;;;;;-4.64;81.20;100786.34;5115700;28;20075;-74
2024/01/20 06:20:03;;;;;;;1.92;1.77;;;;;;;-4.67;81.58;100786.09;5115478;28;20043;-74
2024/01/20 06:22:32;;;;;;;0.70;0.70;;;;;;;-4.64;81.40;100790.44;5114976;28;20051;-75
2024/01/20 06:25:01;;;;;;;0.75;0.75;;;;;;;-4.68;81.06;100789.34;5115619;28;20047;-74
2024/01/20 06:27:30;;;;;;;5.03;1.52;;;;;;;-4.71;81.63;100784.13;5115791;28;20076;-75
2024/01/20 06:29:59;;;;;;;0.90;0.90;;;;;;;-5.04;81.40;100727.63;5114313;28;20130;-75
2024/01/20 06:32:28;;;;;;;0.57;0.57;;;;;;;-4.63;81.67;100793.03;5115940;28;20070;-75
2024/01/20 06:34:57;;;;;;;1.02;1.02;;;;;;;-4.66;82.01;100785.34;5115581;28;20052;-75
2024/01/20 06:37:28;;;;;;;3.97;1.92;;;;;;;-4.54;82.11;100773.84;5115787;28;20032;-76
2024/01/20 06:39:57;;;;;;;7.40;1.63;;;;;;;-4.48;82.19;100779.25;5116036;28;20052;-75
2024/01/20 06:42:26;;;;;;;7.30;4.05;;;;;;;-4.37;82.29;100793.41;5113395;28;20502;-75
2024/01/20 06:44:55;;;;;;;0.75;0.73;;;;;;;-4.34;82.19;100798.59;5115504;28;20083;-75
2024/01/20 06:47:27;;;;;;;4.53;4.15;;;;;;;-4.43;81.86;100805.41;5114343;28;20066;-75
2024/01/20 06:49:55;;;;;;;2.50;2.30;;;;;;;-4.43;82.02;100797.91;5115472;28;20039;-75
2024/01/20 06:52:24;;;;;;;2.80;2.55;;;;;;;-4.34;81.85;100811.06;5109332;28;20079;-75
2024/01/20 06:54:55;;;;;;;1.42;1.33;;;;;;;-4.16;82.23;100807.47;5108525;28;20138;-75
2024/01/20 06:57:24;;;;;;;3.22;2.45;;;;;;;-3.89;82.15;100800.31;5107894;28;20044;-77
2024/01/20 06:59:53;;;;;;;2.03;1.92;;;;;;;-3.62;81.96;100817.28;5092670;28;20035;-77
2024/01/20 07:02:21;;;;;;;2.15;2.05;;;;;;;-3.26;82.70;100814.94;5113793;28;20089;-75
2024/01/20 07:04:50;;;;;;;0.90;0.90;;;;;;;-2.97;81.34;100812.91;5114038;28;20039;-77
2024/01/20 07:07:19;;;;;;;2.13;1.97;;;;;;;-2.94;81.36;100805.63;5116725;28;20032;-78
2024/01/20 07:09:48;;;;;;;1.48;1.38;;;;;;;-3.02;80.48;100810.81;5114364;28;20032;-77
2024/01/20 07:12:21;;;;;;;2.20;2.08;;;;;;;-3.14;80.54;100810.84;5115893;28;20042;-77
2024/01/20 07:14:50;;;;;;;0.93;0.93;;;;;;;-3.06;80.82;100814.75;5115114;28;20134;-77
2024/01/20 07:17:19;;;;;;;3.30;3.00;;;;;;;-2.91;81.16;100828.31;5114920;28;20160;-77
2024/01/20 07:19:48;;;;;;;2.60;2.40;;;;;;;-2.74;80.72;100825.38;5114605;28;20489;-77
2024/01/20 07:22:17;;;;;;;0.43;0.43;;;;;;;-2.51;80.71;100823.59;5114482;28;20080;-78
2024/01/20 07:24:46;;;;;;;;;;;;;;;-2.15;81.25;100831.09;5113712;28;20047;-77
2024/01/20 07:27:15;;;;;;;3.40;3.20;;;;;;;-1.82;80.92;100837.50;5114721;28;19920;-77
2024/01/20 07:29:45;;;;;;;1.83;1.73;;;;;;;-1.78;80.11;100834.44;5114643;28;20031;-77
2024/01/20 07:32:14;;;;;;;1.17;1.13;;;;;;;-1.80;80.10;100828.47;5113796;28;20295;-77
2024/01/20 07:34:43;;;;;;;2.03;1.92;;;;;;;-1.86;79.77;100830.56;5114304;28;20044;-77
2024/01/20 07:37:12;;;;;;;9.25;5.15;;;;;;;-2.12;79.25;100776.31;5096490;28;20093;-77
2024/01/20 07:39:43;;;;;;;1.67;1.58;;;;;;;-1.73;79.71;100839.00;5114604;28;20101;-76
2024/01/20 07:42:12;;;;;;;;;;;;;;;-1.77;79.17;100842.03;5114744;28;20036;-77
2024/01/20 07:44:41;;;;;;;1.75;1.50;;;;;;;-1.80;78.83;100839.31;5096065;28;20014;-77
2024/01/20 07:47:13;;;;;;;0.60;0.60;;;;;;;-1.73;79.21;100841.50;5114463;28;20063;-77
2024/01/20 07:49:42;;;;;;;0.50;0.50;;;;;;;-1.65;78.78;100842.84;5096051;28;20284;-78
2024/01/20 07:52:12;;;;;;;0.82;0.82;;;;;;;-1.60;78.82;100841.50;5113342;28;20111;-77
2024/01/20 07:54:41;;;;;;;1.15;0.93;;;;;;;-1.66;79.02;100846.13;5113405;28;20097;-77
2024/01/20 07:57:11;;;;;;;2.60;2.22;;;;;;;-1.56;79.20;100853.44;5095658;28;20405;-76
2024/01/20 07:59:39;;;;;;;2.10;1.52;;;;;;;-1.46;79.14;100850.78;5096164;28;20050;-76
2024/01/20 08:02:08;;;;;;;3.22;3.03;;;;;;;-1.43;79.33;100855.13;5112784;28;20046;-75
2024/01/20 08:04:39;;;;;;;1.88;1.77;;;;;;;-1.29;79.72;100863.53;5114114;28;20050;-75
2024/01/20 08:07:08;;;;;;;0.82;0.82;;;;;;;-1.10;79.60;100866.44;5114211;28;20043;-74
2024/01/20 08:09:37;;;;;;;1.13;1.13;;;;;;;-0.97;79.70;100868.97;5112753;28;20067;-74
2024/01/20 08:12:07;;;;;;;5.75;3.58;;;;;;;-0.85;79.67;100863.13;5114188;28;20138;-74
2024/01/20 08:14:35;;;;;;;3.17;1.75;;;;;;;-0.84;79.48;100866.50;5114172;28;20105;-74
2024/01/20 08:17:04;;;;;;;0.90;0.90;;;;;;;-0.78;79.59;100859.34;5113795;28;20039;-74
2024/01/20 08:19:33;;;;;;;1.13;1.10;;;;;;;-0.60;79.39;100857.97;5114090;28;20359;-74
2024/01/20 08:22:04;;;;;;;0.82;0.82;;;;;;;-0.49;79.51;100867.03;5114084;28;20588;-73
2024/01/20 08:24:33;;;;;;;1.85;1.75;;;;;;;-0.34;79.46;100867.13;5114649;28;20394;-73
2024/01/20 08:27:02;;;;;;;;;;;;;;;-0.28;79.44;100868.34;5079233;28;20040;-73
2024/01/20 08:29:31;;;;;;;1.53;1.43;;;;;;;-0.26;79.26;100874.34;5114339;28;19927;-73
2024/01/20 08:32:00;;;;;;;5.57;2.83;;;;;;;-0.20;79.57;100876.34;5114019;28;20776;-73
2024/01/20 08:34:29;;;;;;;1.23;1.20;;;;;;;-0.19;79.51;100858.88;5113968;28;20067;-73
2024/01/20 08:36:58;;;;;;;1.27;1.17;;;;;;;0.00;78.98;100881.78;5114210;28;20436;-74
2024/01/20 08:39:28;;;;;;;1.27;1.20;;;;;;;-0.28;78.41;100858.31;5113922;28;20493;-74
2024/01/20 08:41:57;;;;;;;2.47;2.28;;;;;;;0.02;78.34;100883.53;5112319;28;20450;-74
2024/01/20 08:44:26;;;;;;;1.77;1.67;;;;;;;0.16;78.76;100887.72;5116223;28;20375;-74
2024/01/20 08:46:55;;;;;;;1.45;1.30;;;;;;;0.22;78.19;100891.47;5117930;28;20062;-74
2024/01/20 08:49:24;;;;;;;7.80;3.13;;;;;;;0.35;78.21;100895.56;5117457;28;20044;-74
2024/01/20 08:51:54;;;;;;;1.50;1.40;;;;;;;0.35;77.63;100901.47;5117734;28;20041;-73
2024/01/20 08:54:23;;;;;;;1.08;1.05;;;;;;;0.29;77.31;100905.28;5117797;28;20147;-73
2024/01/20 08:56:53;;;;;;;1.13;1.02;;;;;;;0.22;77.31;100909.03;5117076;28;20070;-73
2024/01/20 08:59:22;;;;;;;1.13;1.08;;;;;;;0.19;77.39;100913.03;5116439;28;20052;-73
2024/01/20 09:01:52;;;;;;;2.67;1.50;;;;;;;0.23;77.21;100922.47;5117418;28;20038;-73
2024/01/20 09:04:21;;;;;;;1.50;1.40;;;;;;;0.28;77.02;100923.59;5117569;27;20063;-73
2024/01/20 09:06:49;;;;;;;0.70;0.70;;;;;;;0.37;76.81;100934.19;5116060;28;20043;-73
2024/01/20 09:09:19;;;;;;;1.42;1.33;;;;;;;0.33;77.04;100929.78;5099139;28;20043;-72
2024/01/20 09:11:47;;;;;;;1.45;0.90;;;;;;;0.35;76.98;100936.63;5117461;28;20032;-72
2024/01/20 09:14:18;;;;;;;2.30;2.13;;;;;;;0.48;76.36;100938.22;5117314;28;20555;-72
2024/01/20 09:16:46;;;;;;;2.00;1.90;;;;;;;0.54;76.55;100933.56;5116989;28;20058;-72
2024/01/20 09:19:15;;;;;;;2.13;1.23;;;;;;;0.64;76.53;100941.72;5115708;28;20044;-72
2024/01/20 09:21:45;;;;;;;1.10;1.10;;;;;;;0.41;76.01;100880.84;5117045;28;20375;-72
2024/01/20 09:24:14;;;;;;;10.00;1.48;;;;;;;0.83;75.82;100936.13;5117001;28;20087;-73
2024/01/20 09:26:43;;;;;;;1.92;1.83;;;;;;;0.94;75.54;100937.59;5116991;27;20074;-71
2024/01/20 09:29:12;;;;;;;0.83;0.83;;;;;;;1.08;74.93;100934.22;5117133;28;20088;-72
2024/01/20 09:31:42;;;;;;;1.27;1.05;;;;;;;1.06;74.89;100943.31;5116924;28;20299;-71
2024/01/20 09:34:11;;;;;;;1.95;1.83;;;;;;;1.17;73.96;100934.75;5116968;28;20382;-71
2024/01/20 09:36:39;;;;;;;2.83;1.90;;;;;;;1.23;73.25;100936.72;5116548;28;20043;-71
2024/01/20 09:39:11;;;;;;;0.40;0.40;;;;;;;1.24;73.39;100934.31;5116809;28;20040;-71
2024/01/20 09:41:41;;;;;;;0.50;0.50;;;;;;;1.34;73.08;100940.72;5115594;28;20055;-71
2024/01/20 09:44:12;;;;;;;0.47;0.47;;;;;;;1.46;73.31;100945.56;5116442;28;20043;-71
2024/01/20 09:46:43;;;;;;;1.52;1.42;;;;;;;1.42;72.38;100943.69;5115004;28;20138;-71
2024/01/20 09:49:12;;;;;;;3.60;2.35;;;;;;;1.44;71.27;100937.09;5116312;28;20498;-71
2024/01/20 09:51:50;;;;;;;2.15;1.55;;;;;;;1.57;71.21;100950.41;5116945;28;20039;-72
2024/01/20 09:54:21;;;;;;;0.80;0.80;;;;;;;1.71;71.21;100948.63;5116057;28;20043;-71
2024/01/20 09:56:50;;;;;;;1.40;1.33;;;;;;;1.69;71.57;100955.25;5116060;28;20067;-71
2024/01/20 09:59:22;;;;;;;1.55;1.45;;;;;;;1.74;70.90;100944.66;5117082;28;20040;-71
2024/01/20 10:01:55;;;;;;;1.17;1.15;;;;;;;1.91;70.45;100943.03;5116548;28;20486;-71
2024/01/20 10:04:28;;;;;;;0.90;0.90;;;;;;;1.90;70.30;100942.16;5116992;27;20491;-70
2024/01/20 10:07:01;;;;;;;0.50;0.50;;;;;;;1.99;70.59;100944.34;5116281;28;20048;-71
2024/01/20 10:09:30;;;;;;;1.02;0.93;;;;;;;2.01;70.69;100943.63;5098059;28;20093;-71
2024/01/20 10:12:00;;;;;;;;;;;;;;;2.23;69.86;100937.22;5115458;28;20046;-71
2024/01/20 10:14:29;;;;;;;0.43;0.43;;;;;;;2.34;69.41;100942.00;5115804;28;19989;-72
2024/01/20 10:16:59;;;;;;;0.77;0.77;;;;;;;2.24;69.17;100942.31;5115882;28;20042;-71
2024/01/20 10:19:28;;;;;;;1.58;1.48;;;;;;;2.27;69.35;100939.97;5116234;28;20134;-71
2024/01/20 10:21:57;;;;;;;0.40;0.40;;;;;;;2.36;68.49;100934.53;5115775;28;20081;-71
2024/01/20 10:24:26;;;;;;;2.30;2.10;;;;;;;2.44;68.67;100934.16;5115582;28;20285;-71
2024/01/20 10:26:54;;;;;;;1.60;1.50;;;;;;;2.57;67.75;100935.63;5116316;28;20443;-71
2024/01/20 10:29:23;;;;;;;2.22;2.05;;;;;;;2.63;68.06;100931.78;5115616;28;20126;-73
2024/01/20 10:31:52;;;;;;;0.60;0.60;;;;;;;2.55;67.09;100930.50;5107552;28;20126;-71
2024/01/20 10:34:24;;;;;;;0.57;0.57;;;;;;;2.60;67.41;100926.56;5095528;28;20300;-72
2024/01/20 10:36:59;;;;;;;1.35;1.25;;;;;;;2.59;67.35;100924.84;5095362;28;20051;-71
2024/01/20 10:39:30;;;;;;;0.77;0.77;;;;;;;2.69;66.53;100927.03;5094082;28;20035;-72
2024/01/20 10:42:02;;;;;;;0.60;0.60;;;;;;;2.79;66.45;100922.44;5095301;28;20048;-72
2024/01/20 10:44:34;;;;;;;0.50;0.50;;;;;;;2.99;66.63;100921.78;5095100;28;20047;-73
2024/01/20 10:47:11;;;;;;;0.80;0.80;;;;;;;3.10;66.41;100923.16;5095497;28;20044;-72
2024/01/20 10:49:46;;;;;;;0.80;0.80;;;;;;;3.16;65.12;100918.44;5095237;28;20156;-72
2024/01/20 10:52:15;;;;;;;0.88;0.88;;;;;;;3.26;64.93;100923.16;5093841;28;20087;-73
2024/01/20 10:54:45;;;;;;;0.50;0.50;;;;;;;3.32;65.00;100923.41;5094720;28;20064;-72
2024/01/20 10:57:14;;;;;;;;;;;;;;;3.29;64.36;100914.06;5094825;28;20051;-72
2024/01/20 10:59:44;;;;;;;2.25;2.05;;;;;;;3.32;64.58;100908.28;5093706;28;19920;-71
2024/01/20 11:02:14;;;;;;;0.38;0.38;;;;;;;3.39;64.82;100901.09;5094813;28;20048;-71
2024/01/20 11:04:46;;;;;;;1.83;1.20;;;;;;;3.45;64.24;100900.53;5094532;28;20109;-71
2024/01/20 11:07:22;;;;;;;0.60;0.60;;;;;;;3.23;63.48;100903.69;5093912;28;20050;-72
2024/01/20 11:09:56;;;;;;;1.08;1.05;;;;;;;3.19;63.31;100903.47;5093578;28;20051;-71
2024/01/20 11:12:27;;;;;;;2.20;1.52;;;;;;;3.39;63.46;100895.16;5099964;28;20055;-71
2024/01/20 11:14:59;;;;;;;4.30;1.05;;;;;;;3.57;62.87;100885.94;5103847;28;20101;-72
2024/01/20 11:17:29;;;;;;;0.70;0.70;;;;;;;3.59;63.16;100884.34;5101918;28;20085;-71
2024/01/20 11:20:08;;;;;;;0.82;0.82;;;;;;;3.54;62.77;100878.22;5103095;28;20077;-71
2024/01/20 11:22:41;;;;;;;1.10;1.02;;;;;;;3.60;63.45;100850.72;5094456;28;20040;-71
2024/01/20 11:25:12;;;;;;;3.10;1.85;;;;;;;3.80;62.88;100875.22;5094749;28;20081;-72
2024/01/20 11:27:46;;;;;;;0.47;0.47;;;;;;;3.91;62.18;100879.09;5093022;28;20502;-71
2024/01/20 11:30:25;;;;;;;4.65;2.90;;;;;;;4.01;61.76;100877.84;5094131;28;20052;-73
2024/01/20 11:32:54;;;;;;;0.35;0.35;;;;;;;3.94;61.67;100859.03;5094443;28;20048;-71
2024/01/20 11:35:25;;;;;;;0.50;0.50;;;;;;;4.05;61.59;100873.00;5094268;28;20467;-71
2024/01/20 11:37:57;;;;;;;0.82;0.82;;;;;;;4.08;61.64;100878.19;5094268;28;20093;-72
2024/01/20 11:40:29;;;;;;;2.05;1.95;;;;;;;4.24;61.51;100864.56;5094259;28;20052;-71
2024/01/20 11:43:06;;;;;;;0.40;0.40;;;;;;;4.29;61.34;100862.25;5094917;28;20483;-71